createdAt,value
2019-03-18T00:04:07.123Z,3.74
2019-03-18T00:09:06.942Z,3.84
2019-03-18T00:14:06.431Z,3.78
2019-03-18T00:19:06.928Z,3.74
2019-03-18T00:24:06.344Z,3.78
2019-03-18T00:28:07.381Z,3.59
2019-03-18T00:33:07.704Z,3.45
2019-03-18T00:38:07.200Z,3.47
2019-03-18T00:43:07.211Z,3.38
2019-03-18T00:48:07.381Z,3.25
2019-03-18T00:53:06.909Z,3.43
2019-03-18T00:58:07.503Z,3.54
2019-03-18T01:03:06.634Z,3.48
2019-03-18T01:07:07.581Z,3.49
2019-03-18T01:12:07.679Z,3.6
2019-03-18T01:17:07.561Z,3.39
2019-03-18T01:22:07.159Z,3.43
2019-03-18T01:27:07.693Z,3.64
2019-03-18T01:32:06.922Z,3.62
2019-03-18T01:37:07.471Z,3.64
2019-03-18T01:41:07.201Z,3.84
2019-03-18T01:46:07.345Z,3.91
2019-03-18T01:51:06.960Z,4.07
2019-03-18T01:56:07.441Z,3.92
2019-03-18T02:01:07.531Z,3.73
2019-03-18T02:06:10.864Z,3.55
2019-03-18T02:11:08.400Z,3.42
2019-03-18T02:16:07.306Z,3.35
2019-03-18T02:20:07.091Z,3.25
2019-03-18T02:25:07.725Z,3.4
2019-03-18T02:30:08.780Z,3.4
2019-03-18T02:35:07.530Z,3.14
2019-03-18T02:40:07.475Z,3.18
2019-03-18T02:45:09.297Z,3.32
2019-03-18T02:50:07.343Z,3.05
2019-03-18T02:54:06.870Z,3.05
2019-03-18T02:59:06.323Z,3.09
2019-03-18T03:04:07.448Z,3.06
2019-03-18T03:09:08.254Z,2.88
2019-03-18T03:14:07.767Z,2.73
2019-03-18T03:19:07.854Z,2.78
2019-03-18T03:23:06.386Z,2.79
2019-03-18T03:28:07.756Z,2.91
2019-03-18T03:33:06.438Z,2.82
2019-03-18T03:38:07.014Z,2.84
2019-03-18T03:43:06.825Z,2.69
2019-03-18T03:48:06.322Z,2.75
2019-03-18T03:53:06.875Z,2.81
2019-03-18T03:58:06.455Z,2.7
2019-03-18T04:02:06.999Z,2.73
2019-03-18T04:07:06.747Z,2.6
2019-03-18T04:12:06.489Z,2.72
2019-03-18T04:17:06.639Z,2.87
2019-03-18T04:22:06.196Z,2.84
2019-03-18T04:27:06.694Z,2.76
2019-03-18T04:31:07.528Z,2.58
2019-03-18T04:32:07.086Z,2.58
2019-03-18T04:36:07.239Z,2.65
2019-03-18T04:41:07.286Z,2.67
2019-03-18T04:46:07.572Z,2.66
2019-03-18T04:51:07.190Z,2.64
2019-03-18T04:56:07.738Z,2.65
2019-03-18T05:01:06.742Z,2.37
2019-03-18T05:06:06.337Z,2.42
2019-03-18T05:10:07.663Z,2.25
2019-03-18T05:15:08.428Z,2.31
2019-03-18T05:20:07.330Z,2.47
2019-03-18T05:25:08.714Z,2.54
2019-03-18T05:30:07.994Z,2.47
2019-03-18T05:35:07.729Z,2.4
2019-03-18T05:40:08.411Z,2.46
2019-03-18T05:44:09.300Z,2.58
2019-03-18T05:49:07.707Z,2.85
2019-03-18T05:54:07.457Z,3.11
2019-03-18T05:59:07.707Z,3.28
2019-03-18T06:04:06.874Z,3.2
2019-03-18T06:09:06.758Z,2.88
2019-03-18T06:14:06.388Z,3.01
2019-03-18T06:18:07.326Z,3.02
2019-03-18T06:23:06.304Z,3.18
2019-03-18T06:28:06.916Z,3.45
2019-03-18T06:33:06.590Z,3.6
2019-03-18T06:38:07.051Z,3.65
2019-03-18T06:43:06.935Z,3.69
2019-03-18T06:48:08.973Z,3.76
2019-03-18T06:53:06.619Z,3.88
2019-03-18T06:57:07.766Z,4.09
2019-03-18T07:02:07.050Z,4.16
2019-03-18T07:07:06.468Z,4.21
2019-03-18T07:12:06.444Z,4.29
2019-03-18T07:17:06.830Z,4.3
2019-03-18T07:22:07.388Z,4.35
2019-03-18T07:26:07.153Z,4.41
2019-03-18T07:31:07.449Z,4.52
2019-03-18T07:36:07.027Z,4.62
2019-03-18T07:41:07.018Z,4.71
2019-03-18T07:46:07.226Z,4.75
2019-03-18T07:51:07.751Z,4.81
2019-03-18T07:55:07.484Z,4.86
2019-03-18T08:00:09.647Z,4.93
2019-03-18T08:05:07.068Z,4.94
2019-03-18T08:10:07.262Z,4.93
2019-03-18T08:15:08.890Z,5.02
2019-03-18T08:20:07.603Z,5.05
2019-03-18T08:25:06.932Z,5.2
2019-03-18T08:30:08.801Z,5.22
2019-03-18T08:34:07.563Z,5.22
2019-03-18T08:39:08.343Z,5.24
2019-03-18T08:44:07.678Z,5.24
2019-03-18T08:49:07.617Z,5.23
2019-03-18T08:54:08.014Z,5.27
2019-03-18T08:59:07.440Z,5.6
2019-03-18T09:03:07.989Z,5.53
2019-03-18T09:08:07.479Z,5.7
2019-03-18T09:13:07.400Z,5.71
2019-03-18T09:18:07.577Z,5.85
2019-03-18T09:23:08.065Z,6.11
2019-03-18T09:28:07.615Z,6.22
2019-03-18T09:33:07.885Z,6.2
2019-03-18T09:38:07.270Z,6.31
2019-03-18T09:42:08.071Z,6.4
2019-03-18T09:47:07.133Z,6.84
2019-03-18T09:52:07.643Z,7.19
2019-03-18T09:57:08.087Z,6.95
2019-03-18T10:02:07.771Z,6.57
2019-03-18T10:07:07.241Z,6.39
2019-03-18T10:11:08.073Z,6.31
2019-03-18T10:16:07.642Z,6.16
2019-03-18T10:21:07.133Z,6.1
2019-03-18T10:26:07.467Z,6.42
2019-03-18T10:31:07.688Z,6.5
2019-03-18T10:36:07.085Z,6.39
2019-03-18T10:41:07.950Z,6.43
2019-03-18T10:46:07.325Z,6.43
2019-03-18T10:50:07.376Z,6.97
2019-03-18T10:55:06.905Z,7.35
2019-03-18T11:00:09.611Z,8.47
2019-03-18T11:05:09.202Z,8.07
2019-03-18T11:10:07.224Z,7.41
2019-03-18T11:15:09.026Z,7.38
2019-03-18T11:20:07.894Z,8.04
2019-03-18T11:24:06.984Z,8.21
2019-03-18T11:29:07.339Z,8.8
2019-03-18T11:34:07.512Z,8.12
2019-03-18T11:39:07.355Z,9.25
2019-03-18T11:44:06.831Z,9.1
2019-03-18T11:49:06.993Z,9.42
2019-03-18T11:54:07.402Z,9.4
2019-03-18T11:58:08.098Z,7.81
2019-03-18T12:03:07.560Z,7.4
2019-03-18T12:08:06.995Z,7.1
2019-03-18T12:13:06.837Z,7.62
2019-03-18T12:18:07.612Z,6.98
2019-03-18T12:23:06.960Z,7.02
2019-03-18T12:27:07.597Z,7.1
2019-03-18T12:32:08.010Z,7.26
2019-03-18T12:37:07.367Z,7.77
2019-03-18T12:42:07.332Z,7.75
2019-03-18T12:47:07.573Z,7.33
2019-03-18T12:52:08.027Z,7.05
2019-03-18T12:56:07.355Z,7.6
2019-03-18T13:01:13.905Z,7.88
2019-03-18T13:06:07.431Z,7.76
2019-03-18T13:11:07.283Z,8.38
2019-03-18T13:16:07.622Z,8.21
2019-03-18T13:21:09.288Z,8.35
2019-03-18T13:26:07.599Z,8.29
2019-03-18T13:31:07.832Z,8.29
2019-03-18T13:35:07.099Z,8.32
2019-03-18T13:40:08.016Z,8.18
2019-03-18T13:45:08.521Z,9.05
2019-03-18T13:50:07.817Z,9.71
2019-03-18T13:55:07.361Z,9.4
2019-03-18T14:00:09.560Z,8.44
2019-03-18T14:05:07.692Z,8
2019-03-18T14:09:07.373Z,8
2019-03-18T14:14:07.835Z,6.55
2019-03-18T14:19:07.597Z,6.11
2019-03-18T14:24:08.068Z,6.5
2019-03-18T14:29:07.562Z,7.9
2019-03-18T14:34:07.692Z,8.58
2019-03-18T14:39:07.585Z,8.53
2019-03-18T14:43:07.967Z,8.6
2019-03-18T14:48:07.930Z,8.86
2019-03-18T14:53:07.402Z,8.18
2019-03-18T14:58:07.923Z,7.79
2019-03-18T15:03:07.723Z,7.52
2019-03-18T15:08:07.197Z,7.47
2019-03-18T15:12:07.970Z,7.76
2019-03-18T15:17:08.105Z,8
2019-03-18T15:22:07.551Z,7.92
2019-03-18T15:27:07.963Z,8.92
2019-03-18T15:32:08.039Z,8.32
2019-03-18T15:37:07.679Z,7.89
2019-03-18T15:42:06.790Z,7.7
2019-03-18T15:46:07.838Z,7.58
2019-03-18T15:51:07.124Z,7.46
2019-03-18T15:56:07.912Z,7.39
2019-03-18T16:01:07.708Z,7.4
2019-03-18T16:06:07.255Z,7.37
2019-03-18T16:11:07.310Z,7.52
2019-03-18T16:15:09.327Z,7.48
2019-03-18T16:20:07.706Z,7.14
2019-03-18T16:25:07.235Z,6.79
2019-03-18T16:30:08.868Z,6.91
2019-03-18T16:35:07.826Z,6.71
2019-03-18T16:40:07.776Z,6.76
2019-03-18T16:45:08.876Z,7.15
2019-03-18T16:49:07.786Z,6.88
2019-03-18T16:54:07.530Z,6.06
2019-03-18T16:59:07.248Z,5.5
2019-03-18T17:04:08.136Z,5.2
2019-03-18T17:09:07.996Z,4.9
2019-03-18T17:14:07.589Z,5.09
2019-03-18T17:18:08.957Z,4.93
2019-03-18T17:23:07.302Z,4.77
2019-03-18T17:28:08.118Z,5.07
2019-03-18T17:33:07.300Z,5.07
2019-03-18T17:38:07.367Z,5.1
2019-03-18T17:43:07.100Z,4.96
2019-03-18T17:47:08.287Z,5.05
2019-03-18T17:52:06.805Z,4.86
2019-03-18T17:57:11.730Z,5.04
2019-03-18T18:02:06.998Z,5.2
2019-03-18T18:07:07.576Z,4.83
2019-03-18T18:12:07.595Z,4.47
2019-03-18T18:17:07.668Z,4.57
2019-03-18T18:21:07.292Z,4.58
2019-03-18T18:26:07.762Z,4.6
2019-03-18T18:31:08.094Z,4.3
2019-03-18T18:36:07.485Z,4.18
2019-03-18T18:41:07.202Z,3.9
2019-03-18T18:46:07.234Z,3.68
2019-03-18T18:51:08.291Z,3.5
2019-03-18T18:55:07.773Z,3.36
2019-03-18T19:05:07.546Z,3.47
2019-03-18T19:10:07.311Z,3.56
2019-03-18T19:15:09.275Z,3.58
2019-03-18T19:20:07.923Z,3.32
2019-03-18T19:25:07.425Z,3.33
2019-03-18T19:29:08.523Z,3.04
2019-03-18T19:34:07.969Z,3.18
2019-03-18T19:39:08.009Z,3.4
2019-03-18T19:44:07.468Z,3.34
2019-03-18T19:49:07.708Z,3.25
2019-03-18T19:54:07.216Z,3.35
2019-03-18T19:59:07.658Z,3.06
2019-03-18T20:03:07.239Z,3.27
2019-03-18T20:08:07.726Z,3.34
2019-03-18T20:13:06.835Z,3.34
2019-03-18T20:18:07.360Z,3.05
2019-03-18T20:23:06.927Z,3.33
2019-03-18T20:28:07.481Z,3.29
2019-03-18T20:33:07.684Z,3.5
2019-03-18T20:37:07.520Z,3.21
2019-03-18T20:42:07.396Z,2.81
2019-03-18T20:47:07.837Z,2.91
2019-03-18T20:52:17.911Z,3.25
2019-03-18T20:57:07.516Z,3.16
2019-03-18T21:02:06.870Z,3.3
2019-03-18T21:07:07.353Z,3.25
2019-03-18T21:12:07.584Z,3.34
2019-03-18T21:16:07.712Z,3.64
2019-03-18T21:21:07.283Z,3.41
2019-03-18T21:26:07.762Z,3.41
2019-03-18T21:31:07.878Z,3.18
2019-03-18T21:36:07.292Z,3.31
2019-03-18T21:41:07.147Z,3.38
2019-03-18T21:46:06.815Z,3.35
2019-03-18T21:51:07.610Z,3.65
2019-03-18T21:55:07.723Z,3.44
2019-03-18T22:00:09.213Z,3.38
2019-03-18T22:05:08.364Z,3.28
2019-03-18T22:10:07.719Z,3.04
2019-03-18T22:15:08.979Z,2.88
2019-03-18T22:20:07.413Z,2.75
2019-03-18T22:24:07.877Z,2.57
2019-03-18T22:29:07.390Z,2.65
2019-03-18T22:34:07.535Z,2.78
2019-03-18T22:39:07.440Z,2.82
2019-03-18T22:44:07.899Z,2.75
2019-03-18T22:49:07.930Z,2.6
2019-03-18T22:53:07.025Z,2.57
2019-03-18T22:58:07.580Z,2.46
2019-03-18T23:03:07.869Z,2.66
2019-03-18T23:08:07.329Z,2.71
2019-03-18T23:13:07.021Z,2.78
2019-03-18T23:18:07.573Z,2.74
2019-03-18T23:23:07.115Z,2.72
2019-03-18T23:28:07.591Z,2.61
2019-03-18T23:32:07.191Z,2.75
2019-03-18T23:37:07.744Z,2.51
2019-03-18T23:42:07.674Z,2.36
2019-03-18T23:47:07.455Z,2.34
2019-03-18T23:52:07.946Z,2.16
2019-03-18T23:57:07.441Z,2.17
